Overview Statistics Trail Chart Weather Telemetry Raw packets
 

This is the latest recevied weather packets stored in our database for station/object OK2KJT-11. If no packets are shown the sender has not sent any weather packets the latest 10 day(s).

<< 5 6 7 8 9 10 11 >>
Time Temp. Humidity Pressure Rain* Wind** Luminosity Snow
1788627499 16.11° C 48% 1021.2 hPa - - - -
1788626900 16.67° C 47% 1021 hPa - - - -
1788626300 17.22° C 46% 1020.9 hPa - - - -
1788625700 18.33° C 44% 1020.8 hPa - - - -
1788625108 18.89° C 44% 1020.7 hPa - - - -
1788624500 19.44° C 43% 1020.5 hPa - - - -
1788623900 19.44° C 43% 1020.4 hPa - - - -
1788623301 20° C 42% 1020.4 hPa - - - -
1788622701 20° C 43% 1020.3 hPa - - - -
1788622100 20° C 42% 1020.4 hPa - - - -
1788621501 20° C 42% 1020.3 hPa - - - -
1788620900 20° C 43% 1020.4 hPa - - - -
1788620300 20.56° C 42% 1020.2 hPa - - - -
1788619702 21.11° C 41% 1020.1 hPa - - - -
1788619101 20.56° C 41% 1020.1 hPa - - - -
1788618500 20.56° C 43% 1020.2 hPa - - - -
1788617901 19.44° C 43% 1020.1 hPa - - - -
1788617300 19.44° C 45% 1020.2 hPa - - - -
1788616699 19.44° C 45% 1020.1 hPa - - - -
1788616099 19.44° C 45% 1020.1 hPa - - - -
1788615500 19.44° C 46% 1020.1 hPa - - - -
1788614898 19.44° C 47% 1020.1 hPa - - - -
1788614299 19.44° C 48% 1020.1 hPa - - - -
1788613699 19.44° C 47% 1020.1 hPa - - - -
1788613100 19.44° C 50% 1020.2 hPa - - - -

* Rain since midnight (hover to see other rain measurements)
** Current wind speed in m/s (hover to see current wind gust speed)